Terminal Aerodrome Forecast
Issued by NWS Charleston, WV

Current Version | Previous Version | Text Only | Print | Product List | Glossary Off
Versions: 1 2 3 4 5 6 7 8 9 10 11 12 13 14 15 16 17 18 19 20 21 22 23 24 25 26

000
FTUS41 KRLX 030231 AAA
TAFEKN
TAF AMD
KEKN 030231Z 0303/0324 24005KT 6SM BR BKN080
     FM030500 24004KT 6SM -SHRA BR OVC025
     FM030900 00000KT 4SM -SHRA BR OVC012
     FM031200 00000KT 6SM BR OVC008
     FM031400 VRB03KT P6SM OVC008
     FM031700 29005KT P6SM BKN015
     FM032000 27006KT P6SM BKN015=

USA.gov is the U.S. government's official web portal to all federal, state and local government web resources and services.